Latest Weather Observations for Warruwi

IDD60801

Issued at 7:31 pm CST Monday 25 July 2016 (issued every 30 minutes, with the page automatically refreshed every 10 minutes)

About weather observations | Map of weather stations | Latest weather observations for NT | Other Formats
Station Details ID: 014401 Name: WARRUWI AIRPORT Lat: -11.65 Lon: 133.38 Height: 19.2 m
Data from the previous 72 hours. | See also: Recent months at Warruwi
Date/Time
CST
Temp
°C
App
Temp
°C
Dew
Point
°C
Rel
Hum
%
Delta-T
°C
Wind Press
QNH
hPa
Press
MSL
hPa
Rain since
9am
mm
Dir  Spd
km/h
Gust
km/h
Spd
kts
Gust
kts
25/07:30pm 26.2 29.7 21.8 77 2.9 ENE 6 9 3 5 1011.6 1011.5 0.0
25/07:00pm 26.3 29.4 21.5 75 3.2 ENE 7 13 4 7 1011.2 1011.1 0.0
25/06:30pm 26.8 29.7 21.1 71 3.8 ENE 7 17 4 9 1010.9 1010.8 0.0
25/06:00pm 27.5 30.0 20.3 65 4.7 ENE 7 13 4 7 1010.8 1010.7 0.0
25/05:30pm 28.5 30.1 20.0 60 5.6 ENE 11 17 6 9 1010.7 1010.6 0.0
25/05:00pm 29.0 31.1 20.2 59 5.8 ENE 9 19 5 10 1010.5 1010.4 0.0
25/04:30pm 29.0 29.9 19.3 55 6.3 ENE 13 22 7 12 1010.5 1010.4 0.0
25/04:00pm 29.6 30.3 19.6 55 6.5 ENE 15 22 8 12 1010.6 1010.5 0.0
25/03:30pm 29.7 30.1 19.1 53 6.9 ENE 15 24 8 13 1010.9 1010.8 0.0
25/03:00pm 29.8 29.4 18.9 52 7.1 ENE 19 30 10 16 1011.2 1011.1 0.0
25/02:30pm 29.0 29.3 19.6 57 6.1 E 17 28 9 15 1011.6 1011.5 0.0
25/02:00pm 28.9 28.9 19.8 58 6.0 ENE 19 32 10 17 1012.0 1011.9 0.0
25/01:30pm 29.6 30.2 20.2 57 6.2 E 17 26 9 14 1012.4 1012.3 0.0
25/01:00pm 29.1 29.7 19.4 55 6.3 E 15 22 8 12 1012.6 1012.5 0.0
25/12:30pm 30.2 29.7 18.6 49 7.5 ESE 19 24 10 13 1013.0 1012.9 0.0
25/12:00pm 29.2 29.3 19.2 54 6.5 E 17 22 9 12 1013.4 1013.3 0.0
25/11:30am 29.1 28.1 17.9 50 7.1 E 20 26 11 14 1013.6 1013.5 0.0
25/11:00am 29.4 28.8 17.6 49 7.5 ESE 17 24 9 13 1013.6 1013.5 0.0
25/10:30am 28.2 27.0 17.4 52 6.8 SE 20 26 11 14 1013.6 1013.5 0.0
25/10:00am 26.8 26.6 18.4 60 5.3 ESE 17 26 9 14 1013.8 1013.7 0.0
25/09:30am 25.9 25.4 18.6 64 4.6 ESE 19 24 10 13 1013.8 1013.7 0.0
25/09:00am 26.1 26.6 19.2 65 4.4 ESE 15 24 8 13 1013.9 1013.8 0.0
25/08:30am 25.1 25.6 19.2 70 3.8 SE 15 22 8 12 1013.6 1013.5 0.0
25/08:00am 25.3 25.4 19.2 69 3.9 ESE 17 22 9 12 1013.3 1013.2 0.0
25/07:30am 24.5 25.0 19.3 73 3.3 ESE 15 20 8 11 1013.2 1013.1 0.0
25/07:00am 24.2 24.3 19.1 73 3.3 ESE 17 22 9 12 1013.1 1013.0 0.0
25/06:30am 24.2 24.8 19.5 75 3.0 ESE 15 22 8 12 1013.0 1012.9 0.0
25/06:00am 24.1 25.6 19.8 77 2.8 ESE 11 19 6 10 1012.6 1012.5 0.0
25/05:30am 24.5 25.3 19.8 75 3.0 ESE 15 20 8 11 1012.1 1012.0 0.0
25/05:00am 24.7 25.2 20.0 75 3.0 ESE 17 24 9 13 1011.8 1011.7 0.0
25/04:30am 24.9 26.2 20.2 75 3.1 ESE 13 20 7 11 1011.8 1011.7 0.0
25/04:00am 25.0 26.5 20.5 76 2.9 ESE 13 19 7 10 1011.9 1011.8 0.0
25/03:30am 25.2 27.0 21.1 78 2.7 ESE 13 20 7 11 1011.8 1011.7 0.0
25/03:00am 25.2 27.2 21.5 80 2.5 ESE 13 19 7 10 1011.8 1011.7 0.0
25/02:30am 25.3 28.3 22.6 85 1.8 ESE 11 15 6 8 1012.2 1012.1 0.0
25/02:00am 25.5 29.2 23.2 87 1.6 E 9 17 5 9 1012.4 1012.3 0.0
25/01:30am 25.6 29.8 23.5 88 1.4 E 7 11 4 6 1012.4 1012.3 0.0
25/01:00am 25.8 30.0 23.5 87 1.6 E 7 11 4 6 1012.5 1012.4 0.0
25/12:30am 26.0 29.5 23.5 86 1.7 E 11 17 6 9 1012.7 1012.6 0.0
25/12:00am 26.0 29.5 23.5 86 1.7 E 11 15 6 8 1012.9 1012.8 0.0
 
Date/Time
CST
Temp
°C
App
Temp
°C
Dew
Point
°C
Rel
Hum
%
Delta-T
°C
Wind Press
QNH
hPa
Press
MSL
hPa
Rain since
9am
mm
Dir  Spd
km/h
Gust
km/h
Spd
kts
Gust
kts
24/11:30pm 26.0 29.8 23.5 86 1.7 E 9 17 5 9 1012.9 1012.8 0.0
24/11:00pm 26.0 29.7 23.3 85 1.8 E 9 13 5 7 1013.1 1013.0 0.0
24/10:30pm 25.9 30.0 23.2 85 1.8 E 7 11 4 6 1013.1 1013.0 0.0
24/10:00pm 25.8 29.9 22.9 84 2.0 ENE 6 9 3 5 1013.1 1013.0 0.0
24/09:30pm 25.9 29.8 22.6 82 2.2 ENE 6 9 3 5 1012.7 1012.6 0.0
24/09:00pm 26.0 29.7 22.3 80 2.5 ENE 6 9 3 5 1012.7 1012.6 0.0
24/08:30pm 26.1 29.8 22.2 79 2.6 ENE 6 9 3 5 1012.4 1012.3 0.0
24/08:00pm 26.2 29.7 21.8 77 2.9 ENE 6 9 3 5 1012.0 1011.9 0.0
24/07:30pm 26.4 29.7 21.4 74 3.3 NE 6 9 3 5 1011.6 1011.5 0.0
24/07:00pm 26.6 29.5 20.7 70 3.9 NE 6 15 3 8 1011.3 1011.2 0.0
24/06:30pm 27.0 29.5 20.3 66 4.4 NE 7 11 4 6 1011.0 1010.9 0.0
24/06:00pm 27.7 29.6 19.8 62 5.2 ENE 9 22 5 12 1010.8 1010.7 0.0
24/05:30pm 28.5 30.0 19.7 59 5.7 ENE 11 22 6 12 1010.7 1010.6 0.0
24/05:00pm 28.9 29.9 19.5 57 6.1 ENE 13 19 7 10 1010.6 1010.5 0.0
24/04:30pm 29.0 28.6 19.0 54 6.5 ENE 19 30 10 16 1010.6 1010.5 0.0
24/04:00pm 28.9 28.6 19.2 55 6.3 ENE 19 32 10 17 1010.5 1010.4 0.0
24/03:30pm 29.4 29.2 19.7 56 6.4 E 20 33 11 18 1010.5 1010.4 0.0
24/03:00pm 29.0 28.5 19.9 58 6.0 ENE 22 35 12 19 1010.7 1010.6 0.0
24/02:30pm 29.0 29.1 19.9 58 6.0 E 19 28 10 15 1011.3 1011.2 0.0
24/02:00pm 29.2 29.5 20.4 59 5.8 E 19 30 10 16 1011.9 1011.8 0.0
24/01:30pm 28.9 28.7 20.6 61 5.5 E 22 32 12 17 1012.3 1012.2 0.0
24/01:00pm 28.8 27.8 20.5 61 5.5 E 26 43 14 23 1012.8 1012.7 0.0
24/12:30pm 29.0 29.6 21.0 62 5.3 ENE 19 30 10 16 1013.0 1012.9 0.0
24/12:00pm 29.4 29.2 19.7 56 6.3 E 20 32 11 17 1013.4 1013.3 0.0
24/11:51am 29.4 28.9 19.1 54 6.7 E 20 28 11 15 1013.5 1013.4 0.0
24/11:40am 34.4 36.5 23.1 51 7.8 E 17 24 9 13 1013.6 1013.5 0.0
24/11:30am 29.2 30.4 20.6 59 5.7 E 15 22 8 12 1013.8 1013.7 0.0
24/11:00am 29.4 30.4 20.3 58 6.0 E 15 20 8 11 1013.9 1013.8 0.0
24/10:30am 28.8 29.9 20.5 61 5.5 ESE 15 24 8 13 1013.7 1013.6 0.0
24/10:00am 28.5 30.4 20.5 62 5.3 SE 11 15 6 8 1013.8 1013.7 0.0
24/09:30am 27.2 29.7 21.0 69 4.1 SSE 9 19 5 10 1013.7 1013.6 0.0
24/09:00am 26.2 28.8 21.2 74 3.3 SSE 9 19 5 10 1013.6 1013.5 0.0
24/08:30am 25.4 27.9 21.1 77 2.8 SSE 9 13 5 7 1013.5 1013.4 0.0
24/08:00am 25.6 28.8 21.7 79 2.6 SE 7 11 4 6 1013.4 1013.3 0.0
24/07:30am 24.6 27.9 21.9 85 1.8 SE 7 9 4 5 1012.9 1012.8 0.0
24/07:00am 24.3 27.2 21.8 86 1.7 SE 9 13 5 7 1012.5 1012.4 0.0
24/06:30am 24.2 27.3 22.1 88 1.4 SE 9 13 5 7 1012.1 1012.0 0.0
24/06:00am 24.1 27.5 22.7 92 0.9 SE 9 11 5 6 1011.9 1011.8 0.0
24/05:30am 24.1 28.3 23.2 95 0.6 SE 6 9 3 5 1011.8 1011.7 0.0
24/05:00am 24.3 28.5 23.1 93 0.8 SE 6 6 3 3 1011.5 1011.4 0.0
24/04:30am 24.8 29.5 23.4 92 1.0 SE 4 6 2 3 1011.4 1011.3 0.0
24/04:00am 25.1 28.8 23.2 89 1.3 ESE 9 15 5 8 1011.4 1011.3 0.0
24/03:30am 25.1 29.2 23.2 89 1.3 ESE 7 11 4 6 1011.5 1011.4 0.0
24/03:00am 25.7 29.3 23.7 89 1.4 ESE 11 15 6 8 1011.5 1011.4 0.0
24/02:30am 25.8 29.0 23.7 88 1.4 E 13 20 7 11 1011.6 1011.5 0.0
24/02:00am 25.8 29.1 23.8 89 1.4 E 13 15 7 8 1011.6 1011.5 0.0
24/01:30am 25.9 30.0 23.9 89 1.4 E 9 13 5 7 1011.8 1011.7 0.0
24/01:00am 25.9 29.9 23.8 88 1.4 E 9 15 5 8 1011.9 1011.8 0.0
24/12:30am 26.0 30.1 23.9 88 1.4 E 9 17 5 9 1012.0 1011.9 0.0
24/12:00am 25.9 30.3 23.8 88 1.4 ENE 7 15 4 8 1011.9 1011.8 0.0
 
Date/Time
CST
Temp
°C
App
Temp
°C
Dew
Point
°C
Rel
Hum
%
Delta-T
°C
Wind Press
QNH
hPa
Press
MSL
hPa
Rain since
9am
mm
Dir  Spd
km/h
Gust
km/h
Spd
kts
Gust
kts
23/11:30pm 26.0 30.5 23.9 88 1.4 E 7 13 4 7 1012.0 1011.9 0.0
23/11:00pm 26.0 30.3 23.7 87 1.6 ENE 7 17 4 9 1012.0 1011.9 0.0
23/10:30pm 26.0 30.2 23.5 86 1.7 ENE 7 15 4 8 1012.0 1011.9 0.0
23/10:00pm 26.0 29.6 23.1 84 2.0 ENE 9 15 5 8 1011.9 1011.8 0.0
23/09:30pm 25.9 29.8 23.0 84 2.0 ENE 7 11 4 6 1011.5 1011.4 0.0
23/09:00pm 25.8 29.9 22.9 84 2.0 ENE 6 11 3 6 1011.3 1011.2 0.0
23/08:30pm 25.8 30.3 22.9 84 2.0 ENE 4 7 2 4 1010.9 1010.8 0.0
23/08:00pm 25.9 29.8 22.6 82 2.2 NE 6 9 3 5 1010.6 1010.5 0.0
23/07:30pm 26.1 29.8 22.2 79 2.6 NE 6 13 3 7 1010.3 1010.2 0.0
23/07:00pm 26.3 30.0 22.2 78 2.8 NE 6 9 3 5 1010.0 1009.9 0.0
23/06:30pm 26.7 29.8 21.5 73 3.5 NE 7 11 4 6 1009.9 1009.8 0.0
23/06:00pm 27.8 30.6 20.9 66 4.6 NE 7 17 4 9 1009.8 1009.7 0.0
23/05:30pm 28.6 30.8 20.3 60 5.5 ENE 9 19 5 10 1009.6 1009.5 0.0
23/05:00pm 29.3 31.2 20.5 59 5.8 ENE 11 17 6 9 1009.6 1009.5 0.0
23/04:30pm 29.2 30.1 20.1 58 6.0 ENE 15 24 8 13 1009.5 1009.4 0.0
23/04:00pm 30.0 30.7 19.7 54 6.7 E 15 22 8 12 1009.5 1009.4 0.0
23/03:30pm 30.2 30.8 20.2 55 6.6 E 17 22 9 12 1009.7 1009.6 0.0
23/03:00pm 30.1 31.5 20.4 56 6.4 E 13 24 7 13 1010.0 1009.9 0.0
23/02:30pm 30.0 31.1 20.5 56 6.3 E 15 22 8 12 1010.3 1010.2 0.0
23/02:00pm 29.2 29.7 20.1 58 6.0 E 17 24 9 13 1010.9 1010.8 0.0
23/01:30pm 29.9 31.5 20.7 57 6.1 E 13 24 7 13 1011.5 1011.4 0.0
23/01:00pm 29.7 30.7 20.3 57 6.2 E 15 19 8 10 1011.7 1011.6 0.0
23/12:30pm 29.3 30.9 20.7 59 5.7 E 13 19 7 10 1012.0 1011.9 0.0
23/12:00pm 29.1 31.4 21.3 62 5.2 E 11 17 6 9 1012.4 1012.3 0.0
23/11:30am 28.7 31.2 21.7 66 4.7 E 11 17 6 9 1012.9 1012.8 0.0
23/11:00am 28.3 30.2 21.3 65 4.7 ESE 13 19 7 10 1013.3 1013.2 0.0
23/10:30am 27.9 30.8 21.7 69 4.2 E 9 15 5 8 1013.6 1013.5 0.0
23/10:00am 27.7 30.6 21.7 70 4.0 E 9 15 5 8 1013.8 1013.7 0.0
23/09:30am 27.0 29.5 21.1 70 3.9 SE 9 13 5 7 1013.7 1013.6 0.0
23/09:00am 26.5 28.6 21.0 72 3.6 SE 11 15 6 8 1013.4 1013.3 0.0
23/08:30am 26.0 28.5 21.0 74 3.3 ESE 9 13 5 7 1013.3 1013.2 0.0
23/08:00am 25.2 27.7 21.1 78 2.7 SE 9 13 5 7 1013.0 1012.9 0.0
23/07:30am 24.4 26.9 21.1 82 2.2 SE 9 13 5 7 1012.7 1012.6 0.0
23/07:00am 24.1 26.3 21.2 84 1.9 SE 11 15 6 8 1012.4 1012.3 0.0
23/06:30am 24.2 26.7 21.1 83 2.0 ESE 9 15 5 8 1012.0 1011.9 0.0
23/06:00am 24.4 26.6 21.1 82 2.2 ESE 11 17 6 9 1011.8 1011.7 0.0
23/05:30am 24.7 26.4 21.0 80 2.4 E 13 19 7 10 1011.6 1011.5 0.0
23/05:00am 25.0 26.4 21.1 79 2.6 E 15 26 8 14 1011.3 1011.2 0.0
23/04:30am 25.0 26.4 21.1 79 2.6 ESE 15 20 8 11 1011.2 1011.1 0.0
23/04:00am 25.0 25.9 20.9 78 2.7 ESE 17 24 9 13 1011.0 1010.9 0.0
23/03:30am 25.1 26.2 21.2 79 2.6 ESE 17 24 9 13 1011.1 1011.0 0.0
23/03:00am 25.1 27.3 21.8 82 2.2 ESE 13 19 7 10 1011.3 1011.2 0.0
23/02:30am 24.9 27.5 22.6 87 1.5 ESE 13 20 7 11 1011.4 1011.3 0.0
23/02:00am 25.1 28.9 23.5 91 1.1 ESE 9 13 5 7 1011.5 1011.4 0.0
23/01:30am 25.4 29.4 23.8 91 1.1 ESE 9 13 5 7 1011.3 1011.2 0.0
23/01:00am 25.5 30.0 23.9 91 1.1 E 7 11 4 6 1011.4 1011.3 0.0
23/12:30am 25.4 29.7 23.6 90 1.2 E 7 11 4 6 1011.6 1011.5 0.0
23/12:00am 25.3 30.2 23.7 91 1.1 E 4 7 2 4 1011.8 1011.7 0.0
 
Date/Time
CST
Temp
°C
App
Temp
°C
Dew
Point
°C
Rel
Hum
%
Delta-T
°C
Wind Press
QNH
hPa
Press
MSL
hPa
Rain since
9am
mm
Dir  Spd
km/h
Gust
km/h
Spd
kts
Gust
kts
22/11:30pm 25.3 30.5 23.5 90 1.2 E 2 6 1 3 1011.9 1011.8 0.0
22/11:00pm 25.3 30.1 23.5 90 1.2 E 4 7 2 4 1011.9 1011.8 0.0
22/10:30pm 25.1 29.6 23.0 88 1.4 ENE 4 4 2 2 1011.8 1011.7 0.0
22/10:00pm 25.1 29.5 22.8 87 1.6 NE 4 6 2 3 1011.6 1011.5 0.0
22/09:30pm 25.4 29.9 22.9 86 1.7 NE 4 4 2 2 1011.5 1011.4 0.0
22/09:00pm 25.5 29.8 22.6 84 2.0 ENE 4 6 2 3 1011.3 1011.2 0.0
22/08:30pm 25.6 29.7 22.3 82 2.2 ENE 4 6 2 3 1011.2 1011.1 0.0
22/08:00pm 25.9 30.0 22.2 80 2.5 E 4 6 2 3 1011.0 1010.9 0.0

Other Formats:

Comma delimited format used in spreadsheet applications
http://www.bom.gov.au/fwo/IDD60801/IDD60801.94139.axf

JavaScript Object Notation format (JSON) in row-major order
http://www.bom.gov.au/fwo/IDD60801/IDD60801.94139.json